Time;durP1;ratioP1;P1;durP2;ratioP2;P2;SDS_P1;SDS_P2;PMS_P1;PMS_P2;Temp;Humidity;BMP_temperature;BMP_pressure;BME280_temperature;BME280_humidity;BME280_pressure;Samples;Min_cycle;Max_cycle;Signal;HPM_P1;HPM_P2
2022/03/02 00:00:00;;;;;;;115.90;46.50;;;;;;;-6.81;70.29;101907.33;84676;1329;22612;-79
2022/03/02 00:02:09;;;;;;;114.70;45.60;;;;;;;-6.78;70.41;101906.89;83860;1331;1002956;-80
2022/03/02 00:04:18;;;;;;;108.40;39.90;;;;;;;-6.72;70.47;101909.20;83982;1329;1003154;-79
2022/03/02 00:06:28;;;;;;;129.90;50.90;;;;;;;-6.69;70.45;101905.15;84670;1330;25362;-79
2022/03/02 00:08:40;;;;;;;143.50;53.90;;;;;;;-6.66;70.50;101905.13;83916;1331;1003078;-80
2022/03/02 00:10:49;;;;;;;137.30;51.50;;;;;;;-6.65;70.57;101905.84;84692;1328;22591;-78
2022/03/02 00:12:58;;;;;;;148.80;57.70;;;;;;;-6.66;70.49;101906.84;84591;1330;22603;-79
2022/03/02 00:15:09;;;;;;;142.80;55.10;;;;;;;-6.68;70.44;101906.91;84641;1325;22601;-80
2022/03/02 00:17:16;;;;;;;;;;;;;;;-6.71;70.35;101903.33;84639;1329;22583;-78
2022/03/02 00:19:26;;;;;;;157.00;55.20;;;;;;;-6.80;70.48;101901.84;84642;1327;25594;-75
2022/03/02 00:21:39;;;;;;;145.80;54.50;;;;;;;-6.85;70.47;101898.47;84626;1326;22594;-73
2022/03/02 00:23:48;;;;;;;149.60;54.40;;;;;;;-6.90;70.45;101900.38;84688;1329;22706;-73
2022/03/02 00:25:57;;;;;;;148.10;55.10;;;;;;;-6.95;70.51;101897.60;83959;1328;1003841;-79
2022/03/02 00:28:10;;;;;;;125.30;53.70;;;;;;;-7.00;70.56;101901.53;84634;1325;22560;-79
2022/03/02 00:30:22;;;;;;;145.50;54.80;;;;;;;-7.05;70.68;101901.91;84692;1330;22602;-74
2022/03/02 00:32:30;;;;;;;118.90;47.70;;;;;;;-7.10;70.72;101899.25;84697;1329;25551;-74
2022/03/02 00:34:43;;;;;;;127.70;49.60;;;;;;;-7.13;70.73;101894.84;84661;1329;22573;-74
2022/03/02 00:36:53;;;;;;;126.20;47.20;;;;;;;-7.14;71.04;101895.98;84634;1329;22603;-74
2022/03/02 00:39:02;;;;;;;119.20;46.90;;;;;;;-7.13;71.15;101896.71;84692;1329;22620;-74
2022/03/02 00:41:12;;;;;;;114.90;44.00;;;;;;;-7.11;71.14;101898.20;84676;1329;22585;-79
2022/03/02 00:43:22;;;;;;;104.80;42.20;;;;;;;-7.07;71.44;101892.31;84636;1330;22603;-80
2022/03/02 00:45:34;;;;;;;111.60;44.50;;;;;;;-7.02;71.59;101891.95;84646;1330;22603;-73
2022/03/02 00:47:45;;;;;;;104.10;40.10;;;;;;;-6.93;71.65;101890.38;84697;1328;22608;-75
2022/03/02 00:49:55;;;;;;;107.70;41.80;;;;;;;-6.86;71.61;101888.92;84728;1327;23872;-79
2022/03/02 00:52:06;;;;;;;115.10;42.90;;;;;;;-6.78;71.49;101884.98;84752;1327;22593;-79
2022/03/02 00:54:18;;;;;;;119.70;46.40;;;;;;;-6.72;71.37;101882.56;84614;1330;25537;-80
2022/03/02 00:56:31;;;;;;;110.50;43.90;;;;;;;-6.69;71.26;101879.52;84739;1331;22854;-79
2022/03/02 00:58:40;;;;;;;92.20;39.60;;;;;;;-6.69;71.23;101876.61;84686;1328;22620;-80
2022/03/02 01:00:56;;;;;;;105.10;43.50;;;;;;;-6.71;71.10;101876.35;83947;1330;1003017;-80
2022/03/02 01:03:05;;;;;;;100.10;40.30;;;;;;;-6.73;71.09;101876.89;84619;1329;22615;-79
2022/03/02 01:05:16;;;;;;;102.60;38.50;;;;;;;-6.76;70.99;101876.45;84667;1328;22922;-74
2022/03/02 01:07:25;;;;;;;91.60;39.20;;;;;;;-6.83;70.88;101873.32;84010;1331;1002918;-74
2022/03/02 01:09:35;;;;;;;89.40;37.40;;;;;;;-6.89;70.94;101869.42;84649;1329;22632;-78
2022/03/02 01:11:44;;;;;;;88.50;35.70;;;;;;;-6.91;70.96;101866.73;84665;1329;23894;-79
2022/03/02 01:13:53;;;;;;;81.50;36.30;;;;;;;-6.95;70.98;101868.70;84718;1315;22602;-79
2022/03/02 01:16:02;;;;;;;89.30;37.40;;;;;;;-7.01;71.05;101871.61;84603;1329;22721;-74
2022/03/02 01:18:11;;;;;;;81.30;35.40;;;;;;;-7.08;71.03;101870.54;84611;1330;22622;-74
2022/03/02 01:20:21;;;;;;;78.80;32.30;;;;;;;-7.15;71.05;101867.28;84680;1329;24253;-75
2022/03/02 01:22:30;;;;;;;82.50;34.70;;;;;;;-7.20;71.13;101865.80;83904;1327;1003038;-73
2022/03/02 01:24:39;;;;;;;85.00;34.20;;;;;;;-7.26;71.05;101862.20;84646;1329;22638;-79
2022/03/02 01:26:51;;;;;;;79.70;34.60;;;;;;;-7.32;71.12;101863.57;84642;1331;25548;-80
2022/03/02 01:29:01;;;;;;;84.20;34.80;;;;;;;-7.36;71.30;101861.15;84676;1330;22700;-79
2022/03/02 01:31:11;;;;;;;86.30;33.60;;;;;;;-7.38;71.44;101856.11;84707;1321;22669;-73
2022/03/02 01:33:20;;;;;;;99.00;38.00;;;;;;;-7.38;71.49;101855.59;84578;1330;22669;-73
2022/03/02 01:35:30;;;;;;;84.60;35.70;;;;;;;-7.36;71.73;101856.23;84627;1320;22799;-79
2022/03/02 01:37:39;;;;;;;91.70;34.60;;;;;;;-7.33;71.83;101852.69;84682;1328;23926;-78
2022/03/02 01:39:48;;;;;;;81.90;32.50;;;;;;;-7.26;71.96;101853.55;84703;1329;23049;-73
2022/03/02 01:41:58;;;;;;;86.30;31.60;;;;;;;-7.22;71.77;101853.61;84677;1329;25428;-74
2022/03/02 01:44:11;;;;;;;84.00;34.30;;;;;;;-7.17;71.89;101849.83;84701;1330;22620;-72
2022/03/02 01:46:21;;;;;;;80.60;33.30;;;;;;;-7.10;71.97;101846.49;84619;1329;24427;-79
2022/03/02 01:48:35;;;;;;;94.10;37.80;;;;;;;-7.04;72.01;101841.11;84608;1327;22835;-80
2022/03/02 01:50:45;;;;;;;81.30;32.80;;;;;;;-6.97;71.87;101840.79;84611;1329;22620;-73
2022/03/02 01:52:54;;;;;;;82.20;36.00;;;;;;;-6.96;71.77;101837.96;84718;1327;25229;-72
2022/03/02 01:55:04;;;;;;;78.70;34.10;;;;;;;-6.97;71.58;101835.20;84685;1326;22614;-73
2022/03/02 01:57:17;;;;;;;85.80;34.20;;;;;;;-6.99;71.55;101836.47;84676;1330;22619;-74
2022/03/02 01:59:26;;;;;;;87.20;34.30;;;;;;;-7.01;71.59;101837.84;84698;1329;24257;-78
2022/03/02 02:01:35;;;;;;;59.70;26.40;;;;;;;-7.07;71.55;101828.55;84688;1324;24819;-79
2022/03/02 02:03:48;;;;;;;93.00;36.30;;;;;;;-7.14;71.46;101828.67;84654;1331;22584;-80
2022/03/02 02:05:58;;;;;;;76.00;35.20;;;;;;;-7.19;71.46;101827.17;84683;1330;22595;-80
2022/03/02 02:08:07;;;;;;;88.80;36.40;;;;;;;-7.24;71.55;101824.00;84659;1324;22541;-79
2022/03/02 02:10:19;;;;;;;79.90;33.40;;;;;;;-7.32;71.53;101825.77;84671;1328;24137;-79
2022/03/02 02:12:29;;;;;;;81.30;35.00;;;;;;;-7.38;71.59;101822.89;84698;1328;22620;-79
2022/03/02 02:14:42;;;;;;;84.00;35.60;;;;;;;-7.44;71.69;101819.15;84675;1329;22605;-73
2022/03/02 02:16:51;;;;;;;78.50;33.40;;;;;;;-7.49;71.63;101818.32;84683;1330;22830;-72
2022/03/02 02:19:03;;;;;;;57.60;27.60;;;;;;;-7.54;71.61;101817.03;83961;1330;1003252;-73
2022/03/02 02:21:13;;;;;;;80.50;35.40;;;;;;;-7.59;71.65;101817.10;84680;1329;22669;-79
2022/03/02 02:23:23;;;;;;;58.80;25.80;;;;;;;-7.61;71.87;101813.91;84594;1330;22602;-78
2022/03/02 02:25:32;;;;;;;73.80;33.40;;;;;;;-7.62;71.99;101812.16;84683;1329;22688;-72
2022/03/02 02:27:45;;;;;;;74.90;30.70;;;;;;;-7.59;72.23;101809.45;84701;1325;22596;-73
2022/03/02 02:29:55;;;;;;;78.70;33.60;;;;;;;-7.55;72.32;101804.92;84671;1328;25480;-74
2022/03/02 02:32:05;;;;;;;85.90;32.40;;;;;;;-7.51;72.29;101803.44;84578;1333;22592;-74
2022/03/02 02:34:14;;;;;;;86.50;33.50;;;;;;;-7.47;72.11;101796.42;84586;1330;22716;-73
2022/03/02 02:36:23;;;;;;;82.70;35.60;;;;;;;-7.40;72.34;101797.49;84684;1324;22904;-73
2022/03/02 02:38:35;;;;;;;79.20;33.10;;;;;;;-7.34;72.23;101796.34;83935;1329;1003219;-73
2022/03/02 02:40:45;;;;;;;73.30;31.00;;;;;;;-7.31;72.31;101791.92;84699;1330;25056;-79
2022/03/02 02:42:54;;;;;;;80.60;32.40;;;;;;;-7.27;72.24;101794.17;84703;1332;22545;-79
2022/03/02 02:45:08;;;;;;;75.50;34.30;;;;;;;-7.29;72.10;101789.15;84712;1329;24057;-79
2022/03/02 02:47:18;;;;;;;78.00;33.80;;;;;;;-7.30;72.03;101792.98;84690;1330;22580;-79
2022/03/02 02:49:30;;;;;;;81.40;35.80;;;;;;;-7.31;72.03;101792.73;84009;1328;1003025;-78
2022/03/02 02:51:40;;;;;;;90.40;36.60;;;;;;;-7.34;72.01;101791.42;84626;1329;22578;-78
2022/03/02 02:53:50;;;;;;;63.20;27.60;;;;;;;-7.39;72.01;101791.48;84633;1329;22600;-79
2022/03/02 02:55:58;;;;;;;;;;;;;;;-7.44;72.03;101791.52;83817;1335;1003153;-72
2022/03/02 02:58:07;;;;;;;80.70;34.10;;;;;;;-7.48;72.19;101793.64;84673;1331;22637;-73
2022/03/02 03:00:24;;;;;;;85.30;36.00;;;;;;;-7.51;72.16;101794.50;84670;1329;22584;-79
2022/03/02 03:02:33;;;;;;;83.90;35.80;;;;;;;-7.58;72.24;101797.15;84674;1329;26488;-79
2022/03/02 03:04:45;;;;;;;80.00;36.00;;;;;;;-7.64;72.29;101796.80;84664;1328;22587;-78
2022/03/02 03:06:55;;;;;;;76.30;32.70;;;;;;;-7.69;72.21;101794.44;84671;1330;22613;-80
2022/03/02 03:09:04;;;;;;;79.10;32.80;;;;;;;-7.74;72.43;101789.39;83940;1329;1003841;-80
2022/03/02 03:11:13;;;;;;;66.80;34.10;;;;;;;-7.79;72.35;101792.00;84673;1329;23941;-78
2022/03/02 03:13:23;;;;;;;76.80;34.70;;;;;;;-7.83;72.48;101791.80;84668;1329;22619;-79
2022/03/02 03:15:34;;;;;;;74.30;32.40;;;;;;;-7.85;72.59;101790.96;84664;1329;22584;-74
2022/03/02 03:17:46;;;;;;;67.80;30.10;;;;;;;-7.84;72.75;101788.52;84690;1328;23920;-73
2022/03/02 03:19:55;;;;;;;73.00;32.40;;;;;;;-7.78;73.00;101785.10;84655;1331;22630;-80
2022/03/02 03:22:08;;;;;;;70.20;29.00;;;;;;;-7.72;73.00;101782.89;84689;1324;24306;-80
2022/03/02 03:24:20;;;;;;;74.30;31.40;;;;;;;-7.67;72.96;101782.56;84624;1330;22592;-80
2022/03/02 03:26:29;;;;;;;77.60;33.10;;;;;;;-7.64;72.99;101777.27;84669;1324;22903;-75
2022/03/02 03:28:38;;;;;;;68.70;30.40;;;;;;;-7.63;72.89;101770.94;84636;1330;22878;-74
2022/03/02 03:30:48;;;;;;;69.10;29.60;;;;;;;-7.62;72.70;101767.77;84669;1328;22604;-74
2022/03/02 03:32:58;;;;;;;70.60;31.40;;;;;;;-7.57;72.92;101766.66;84751;1327;22714;-74
2022/03/02 03:35:10;;;;;;;;;;;;;;;-7.50;72.99;101763.50;84707;1326;24402;-80
2022/03/02 03:37:23;;;;;;;69.30;31.40;;;;;;;-7.47;72.97;101762.34;83993;1332;1003793;-80
2022/03/02 03:39:34;;;;;;;72.00;32.40;;;;;;;-7.45;73.01;101762.45;84724;1330;22607;-74
2022/03/02 03:41:44;;;;;;;75.10;35.00;;;;;;;-7.47;72.84;101759.59;84684;1332;22616;-74
2022/03/02 03:43:53;;;;;;;74.60;35.20;;;;;;;-7.51;72.75;101758.23;84678;1330;22620;-74
2022/03/02 03:46:03;;;;;;;78.10;34.80;;;;;;;-7.51;72.79;101752.44;83945;1330;1003716;-79
2022/03/02 03:48:12;;;;;;;80.00;35.40;;;;;;;-7.56;72.68;101749.33;84630;1330;24356;-79
2022/03/02 03:50:21;;;;;;;78.80;34.50;;;;;;;-7.60;72.81;101754.50;84637;1333;22575;-72
2022/03/02 03:52:33;;;;;;;85.30;35.60;;;;;;;-7.65;72.85;101751.31;84677;1330;24007;-74
2022/03/02 03:54:42;;;;;;;80.40;36.60;;;;;;;-7.70;72.86;101750.66;84637;1329;25291;-73
2022/03/02 03:56:51;;;;;;;79.70;35.70;;;;;;;-7.75;72.88;101755.98;84609;1329;22531;-73
2022/03/02 03:59:00;;;;;;;65.50;29.00;;;;;;;-7.80;72.92;101751.11;84641;1330;22620;-73
2022/03/02 04:01:10;;;;;;;86.90;35.00;;;;;;;-7.87;72.98;101750.23;84694;1330;22576;-80
2022/03/02 04:03:20;;;;;;;78.80;35.50;;;;;;;-7.92;73.14;101747.35;84613;1329;22618;-80
2022/03/02 04:05:27;;;;;;;;;;;;;;;-7.97;73.14;101746.92;84661;1333;22770;-72
2022/03/02 04:07:40;;;;;;;87.40;37.70;;;;;;;-8.01;73.23;101746.70;84714;1324;24307;-75
2022/03/02 04:09:50;;;;;;;78.10;37.60;;;;;;;-8.00;73.36;101742.83;83969;1329;1003083;-78
2022/03/02 04:11:59;;;;;;;80.10;36.40;;;;;;;-7.99;73.49;101741.20;84682;1332;22589;-79
2022/03/02 04:14:11;;;;;;;79.00;34.10;;;;;;;-7.94;73.61;101739.95;84715;1327;24376;-79
2022/03/02 04:16:20;;;;;;;79.20;33.90;;;;;;;-7.89;73.61;101737.88;84626;1325;22611;-72
2022/03/02 04:18:31;;;;;;;77.40;33.90;;;;;;;-7.84;73.78;101739.39;84683;1329;22616;-74
2022/03/02 04:20:40;;;;;;;76.80;32.40;;;;;;;-7.77;73.82;101735.70;84705;1329;22612;-73
2022/03/02 04:22:49;;;;;;;79.80;33.20;;;;;;;-7.69;73.88;101734.33;84643;1330;25447;-74
2022/03/02 04:25:02;;;;;;;85.40;35.20;;;;;;;-7.61;73.85;101735.27;84680;1328;24071;-72
2022/03/02 04:27:13;;;;;;;71.70;33.50;;;;;;;-7.60;73.63;101732.45;84640;1331;22594;-72
2022/03/02 04:29:22;;;;;;;79.50;35.10;;;;;;;-7.57;73.66;101736.54;84561;1328;22688;-72
2022/03/02 04:31:32;;;;;;;73.00;32.50;;;;;;;-7.55;73.55;101736.63;84627;1329;24039;-80
2022/03/02 04:33:44;;;;;;;82.60;38.10;;;;;;;-7.55;73.55;101734.27;84697;1330;22587;-80
2022/03/02 04:35:54;;;;;;;83.20;36.70;;;;;;;-7.57;73.42;101731.30;84664;1323;25537;-74
2022/03/02 04:38:03;;;;;;;77.00;36.90;;;;;;;-7.61;73.31;101730.55;84573;1329;23980;-73
2022/03/02 04:40:16;;;;;;;83.00;35.90;;;;;;;-7.65;73.18;101730.63;84617;1330;25223;-79
2022/03/02 04:42:29;;;;;;;85.30;36.50;;;;;;;-7.72;73.23;101733.61;84696;1329;22923;-79
2022/03/02 04:44:38;;;;;;;104.00;42.60;;;;;;;-7.81;73.16;101736.35;84653;1330;23953;-73
2022/03/02 04:46:50;;;;;;;86.60;36.90;;;;;;;-7.87;73.21;101736.14;84688;1330;24216;-72
2022/03/02 04:49:10;;;;;;;90.30;37.40;;;;;;;-7.92;73.39;101740.41;84612;1324;25529;-73
2022/03/02 04:51:19;;;;;;;90.90;38.20;;;;;;;-7.99;73.45;101742.90;83977;1329;1003000;-79
2022/03/02 04:53:31;;;;;;;83.20;37.10;;;;;;;-8.06;73.46;101739.45;84717;1330;22695;-79
2022/03/02 04:55:40;;;;;;;88.90;39.70;;;;;;;-8.13;73.53;101737.00;83941;1329;1003511;-73
2022/03/02 04:57:54;;;;;;;92.90;39.50;;;;;;;-8.16;73.62;101734.75;84659;1330;23042;-73
2022/03/02 05:00:03;;;;;;;94.10;38.00;;;;;;;-8.18;73.81;101732.27;84731;1329;22591;-72
2022/03/02 05:02:15;;;;;;;86.50;37.00;;;;;;;-8.19;73.96;101729.87;84692;1324;22661;-73
2022/03/02 05:04:26;;;;;;;84.70;35.20;;;;;;;-8.17;74.15;101725.25;84665;1329;22728;-75
2022/03/02 05:06:35;;;;;;;83.40;35.20;;;;;;;-8.16;74.13;101724.80;84676;1329;22577;-72
2022/03/02 05:08:47;;;;;;;82.30;33.30;;;;;;;-8.12;74.18;101724.05;84628;1329;22610;-74
2022/03/02 05:10:57;;;;;;;87.10;37.60;;;;;;;-8.06;74.24;101723.51;83951;1329;1003105;-73
2022/03/02 05:13:06;;;;;;;80.30;32.80;;;;;;;-8.02;74.07;101722.87;84689;1330;22597;-73
2022/03/02 05:15:19;;;;;;;82.70;34.90;;;;;;;-7.97;74.15;101720.35;84650;1329;22614;-81
2022/03/02 05:17:28;;;;;;;74.70;32.90;;;;;;;-7.90;74.16;101721.77;84673;1330;24192;-78
2022/03/02 05:19:39;;;;;;;78.10;34.80;;;;;;;-7.83;74.06;101716.05;84359;1325;406053;-72
2022/03/02 05:21:49;;;;;;;84.20;36.70;;;;;;;-7.79;74.13;101711.74;84687;1329;22656;-73
2022/03/02 05:23:58;;;;;;;90.20;36.60;;;;;;;-7.74;73.92;101708.59;84683;1329;22728;-75
2022/03/02 05:26:10;;;;;;;61.40;28.30;;;;;;;-7.70;74.06;101710.35;84633;1328;24332;-79
2022/03/02 05:28:20;;;;;;;81.30;35.80;;;;;;;-7.68;74.13;101712.16;84684;1330;22580;-80
2022/03/02 05:30:33;;;;;;;78.30;33.80;;;;;;;-7.67;74.02;101711.20;84578;1333;22676;-72
2022/03/02 05:32:42;;;;;;;78.80;36.30;;;;;;;-7.67;73.97;101713.59;84676;1328;23818;-73
2022/03/02 05:34:51;;;;;;;76.00;34.10;;;;;;;-7.70;73.83;101709.14;84647;1331;26528;-79
2022/03/02 05:37:04;;;;;;;88.00;36.00;;;;;;;-7.73;73.79;101708.28;84694;1330;22848;-79
2022/03/02 05:39:14;;;;;;;83.10;34.00;;;;;;;-7.74;73.97;101707.55;84650;1330;22724;-79
2022/03/02 05:41:26;;;;;;;75.30;34.90;;;;;;;-7.76;74.00;101705.45;84685;1325;24305;-80
2022/03/02 05:43:35;;;;;;;79.80;34.30;;;;;;;-7.79;73.90;101703.25;84612;1329;22592;-80
2022/03/02 05:45:44;;;;;;;81.20;34.30;;;;;;;-7.83;73.95;101702.17;84023;1330;1002928;-79
2022/03/02 05:47:54;;;;;;;95.20;36.90;;;;;;;-7.85;74.01;101696.14;84684;1324;22641;-79
2022/03/02 05:50:03;;;;;;;85.70;35.00;;;;;;;-7.86;74.08;101697.40;84638;1330;22614;-72
2022/03/02 05:52:16;;;;;;;84.10;38.90;;;;;;;-7.87;74.19;101697.88;84642;1330;24802;-73
2022/03/02 05:54:26;;;;;;;78.00;35.50;;;;;;;-7.87;74.36;101702.99;84638;1326;25417;-78
2022/03/02 05:56:37;;;;;;;84.10;35.40;;;;;;;-7.86;74.44;101702.66;84675;1330;24090;-73
2022/03/02 05:58:46;;;;;;;80.30;37.20;;;;;;;-7.84;74.59;101702.10;84687;1329;22584;-72
2022/03/02 06:00:56;;;;;;;67.90;32.40;;;;;;;-7.79;74.73;101699.36;83971;1329;1003685;-79
2022/03/02 06:03:06;;;;;;;69.50;31.90;;;;;;;-7.70;74.74;101701.89;84687;1328;23918;-79
2022/03/02 06:05:15;;;;;;;78.90;33.40;;;;;;;-7.61;75.00;101700.23;84655;1332;22608;-73
2022/03/02 06:07:25;;;;;;;74.40;33.30;;;;;;;-7.26;75.18;101699.29;84624;1333;25940;-73
2022/03/02 06:09:38;;;;;;;77.80;33.60;;;;;;;-6.51;75.69;101698.39;84637;1321;22937;-73
2022/03/02 06:11:49;;;;;;;76.10;33.10;;;;;;;-5.89;75.52;101694.75;84631;1329;22584;-74
2022/03/02 06:14:02;;;;;;;77.70;33.80;;;;;;;-5.72;74.64;101691.85;84734;1330;25310;-73
2022/03/02 06:16:14;;;;;;;71.90;31.30;;;;;;;-5.64;74.08;101695.42;84690;1329;22595;-79
2022/03/02 06:18:25;;;;;;;73.90;34.70;;;;;;;-5.62;73.78;101695.86;84576;1327;22666;-79
2022/03/02 06:20:37;;;;;;;79.30;34.40;;;;;;;-5.63;73.64;101696.85;84636;1325;23059;-80
2022/03/02 06:22:49;;;;;;;71.40;33.90;;;;;;;-5.62;73.54;101697.04;84677;1329;22597;-79
2022/03/02 06:25:00;;;;;;;77.20;38.10;;;;;;;-5.58;73.58;101695.56;84593;1331;22888;-79
2022/03/02 06:27:09;;;;;;;77.20;36.90;;;;;;;-5.30;73.66;101697.56;84638;1329;25624;-81
2022/03/02 06:29:18;;;;;;;76.20;33.40;;;;;;;-4.60;74.30;101696.05;84687;1330;25971;-78
2022/03/02 06:31:28;;;;;;;79.00;36.90;;;;;;;-3.88;74.58;101694.73;83912;1333;1003384;-79
2022/03/02 06:33:40;;;;;;;76.90;35.60;;;;;;;-3.41;74.12;101692.55;84670;1330;25246;-80
2022/03/02 06:35:52;;;;;;;77.90;36.40;;;;;;;-2.77;73.31;101689.90;83936;1330;1003058;-78
2022/03/02 06:38:02;;;;;;;74.20;37.40;;;;;;;-2.56;72.25;101686.92;83995;1328;1003092;-81
2022/03/02 06:40:14;;;;;;;82.30;37.30;;;;;;;-2.54;70.73;101681.54;84700;1330;22583;-81
2022/03/02 06:42:29;;;;;;;82.20;36.90;;;;;;;-2.37;70.20;101678.89;84634;1332;22627;-79
2022/03/02 06:44:45;;;;;;;81.30;39.00;;;;;;;-2.28;69.98;101679.20;84621;1330;22579;-74
2022/03/02 06:47:03;;;;;;;81.80;38.20;;;;;;;-2.11;70.09;101677.73;84695;1330;22585;-74
2022/03/02 06:49:19;;;;;;;79.10;37.70;;;;;;;-1.89;69.29;101681.23;84621;1330;22587;-74
2022/03/02 06:51:28;;;;;;;82.80;38.40;;;;;;;-1.85;69.23;101675.55;83953;1330;1003162;-74
2022/03/02 06:53:38;;;;;;;77.90;40.30;;;;;;;-1.82;68.80;101673.95;84641;1333;22736;-74
2022/03/02 06:55:48;;;;;;;89.50;43.50;;;;;;;-1.72;68.97;101671.68;84630;1330;24941;-74
2022/03/02 06:57:59;;;;;;;79.10;39.40;;;;;;;-1.37;68.84;101676.42;84698;1328;22607;-74
2022/03/02 07:00:16;;;;;;;85.10;41.50;;;;;;;-1.12;68.49;101671.54;84622;1330;22614;-76
2022/03/02 07:02:33;;;;;;;76.10;37.50;;;;;;;-0.91;67.77;101666.16;84646;1329;22616;-77
2022/03/02 07:04:46;;;;;;;82.30;39.30;;;;;;;-0.70;67.42;101660.64;84680;1327;22581;-73
2022/03/02 07:06:55;;;;;;;83.20;40.50;;;;;;;-0.61;66.64;101657.45;84618;1331;22620;-73
2022/03/02 07:09:07;;;;;;;77.80;38.10;;;;;;;-0.52;67.00;101658.06;84709;1330;22586;-75
2022/03/02 07:11:16;;;;;;;80.10;40.20;;;;;;;-0.03;67.49;101657.47;84675;1332;22772;-78
2022/03/02 07:13:28;;;;;;;70.40;33.10;;;;;;;0.43;66.39;101658.45;84676;1329;22676;-75
2022/03/02 07:15:37;;;;;;;68.20;32.80;;;;;;;0.92;65.26;101655.80;84654;1325;22613;-78
2022/03/02 07:17:46;;;;;;;64.70;29.90;;;;;;;1.43;64.58;101651.70;84681;1325;22593;-77
2022/03/02 07:19:55;;;;;;;68.60;32.10;;;;;;;1.73;63.84;101650.23;84637;1329;22629;-76
2022/03/02 07:22:06;;;;;;;58.40;32.00;;;;;;;1.87;62.57;101655.98;84682;1332;24376;-75
2022/03/02 07:24:20;;;;;;;54.80;30.40;;;;;;;2.09;62.11;101654.48;84611;1333;22684;-76
2022/03/02 07:26:32;;;;;;;61.50;34.10;;;;;;;2.66;61.16;101655.05;84684;1330;22624;-75
2022/03/02 07:28:42;;;;;;;60.10;32.30;;;;;;;3.28;60.90;101649.34;84626;1329;22629;-76
2022/03/02 07:30:51;;;;;;;66.50;33.00;;;;;;;3.88;59.24;101647.43;84706;1330;22595;-79
2022/03/02 07:33:05;;;;;;;63.90;34.70;;;;;;;4.42;58.34;101647.73;84675;1329;23993;-80
2022/03/02 07:35:14;;;;;;;66.40;32.70;;;;;;;4.96;57.31;101643.42;84694;1332;24393;-76
2022/03/02 07:37:23;;;;;;;69.70;34.20;;;;;;;5.52;56.14;101644.18;84680;1331;25481;-77
2022/03/02 07:39:33;;;;;;;59.60;32.40;;;;;;;6.01;53.85;101643.29;84582;1333;22592;-77
2022/03/02 07:41:45;;;;;;;73.40;32.80;;;;;;;6.32;52.64;101643.14;84624;1329;25302;-80
2022/03/02 07:43:57;;;;;;;75.90;35.00;;;;;;;6.67;51.19;101639.46;84669;1330;22605;-78
2022/03/02 07:46:06;;;;;;;85.80;34.30;;;;;;;7.14;50.61;101634.47;84681;1330;23883;-81
2022/03/02 07:48:16;;;;;;;90.10;34.90;;;;;;;7.57;48.28;101632.02;84682;1329;25235;-80
2022/03/02 07:50:28;;;;;;;77.30;34.40;;;;;;;8.05;47.41;101630.48;84594;1330;22598;-80
2022/03/02 07:52:38;;;;;;;72.50;34.20;;;;;;;8.57;46.01;101623.48;84626;1333;22620;-80
2022/03/02 07:54:49;;;;;;;;;;;;;;;9.06;44.26;101624.17;84719;1330;24317;-79
2022/03/02 07:56:57;;;;;;;;;;;;;;;9.48;44.16;101624.67;84628;1330;22589;-80
2022/03/02 07:59:07;;;;;;;102.90;34.90;;;;;;;9.95;41.96;101622.98;84693;1330;23987;-80
2022/03/02 08:01:20;;;;;;;93.40;37.30;;;;;;;10.25;41.10;101620.07;84642;1330;24415;-79
2022/03/02 08:03:30;;;;;;;77.80;32.10;;;;;;;10.78;41.21;101616.00;84628;1331;22591;-80
2022/03/02 08:05:43;;;;;;;106.20;38.70;;;;;;;11.30;39.79;101609.89;84672;1329;24241;-76
2022/03/02 08:07:52;;;;;;;91.40;36.50;;;;;;;11.90;38.14;101605.60;84633;1330;22590;-75
2022/03/02 08:10:07;;;;;;;91.40;31.50;;;;;;;12.24;36.95;101600.56;84685;1330;22602;-79
2022/03/02 08:12:18;;;;;;;82.40;32.40;;;;;;;12.53;35.99;101588.77;84674;1330;22626;-77
2022/03/02 08:14:27;;;;;;;64.70;28.90;;;;;;;12.92;35.48;101590.19;84690;1332;24115;-76
2022/03/02 08:16:36;;;;;;;57.10;26.70;;;;;;;13.19;34.79;101589.23;84619;1333;25444;-76
2022/03/02 08:18:43;;;;;;;47.60;23.90;;;;;;;13.43;34.29;101588.89;84621;1330;22865;-77
2022/03/02 08:20:54;;;;;;;42.80;25.40;;;;;;;13.67;33.55;101586.39;84680;1331;22612;-77
2022/03/02 08:23:06;;;;;;;55.40;25.70;;;;;;;13.87;32.86;101588.90;84639;1333;22648;-77
2022/03/02 08:25:15;;;;;;;87.30;30.00;;;;;;;13.95;32.16;101588.48;84725;1330;22873;-79
2022/03/02 08:27:26;;;;;;;108.10;31.80;;;;;;;14.04;32.28;101587.13;84662;1333;22719;-81
2022/03/02 08:29:38;;;;;;;106.40;34.10;;;;;;;14.22;31.70;101585.14;84695;1332;22734;-79
2022/03/02 08:31:47;;;;;;;79.20;26.90;;;;;;;14.35;30.98;101582.39;84640;1333;24149;-76
2022/03/02 08:33:56;;;;;;;87.20;28.00;;;;;;;14.42;31.04;101578.81;84694;1325;22604;-76
2022/03/02 08:36:05;;;;;;;99.00;29.30;;;;;;;14.54;30.74;101583.72;84707;1330;24342;-80
2022/03/02 08:38:15;;;;;;;76.30;27.10;;;;;;;14.72;30.59;101582.89;84674;1321;22664;-80
2022/03/02 08:40:25;;;;;;;;;;;;;;;14.87;30.21;101580.05;84709;1331;22676;-77
2022/03/02 08:42:34;;;;;;;41.60;20.60;;;;;;;14.86;29.74;101570.59;84687;1330;25297;-75
2022/03/02 08:44:48;;;;;;;30.40;20.00;;;;;;;15.04;29.40;101561.86;84631;1330;22563;-81
2022/03/02 08:46:57;;;;;;;31.90;20.00;;;;;;;15.10;29.58;101557.61;84678;1328;22880;-80
2022/03/02 08:49:09;;;;;;;27.20;17.00;;;;;;;15.17;29.01;101553.81;84636;1329;24224;-79
2022/03/02 08:51:18;;;;;;;25.70;16.60;;;;;;;15.11;28.98;101556.66;84653;1328;22580;-75
2022/03/02 08:53:27;;;;;;;29.00;18.50;;;;;;;15.03;29.35;101552.21;84686;1330;22564;-75
2022/03/02 08:55:37;;;;;;;;;;;;;;;14.99;29.18;101548.33;84720;1330;22585;-76
2022/03/02 08:57:49;;;;;;;25.80;17.10;;;;;;;14.83;29.07;101546.82;84661;1330;22598;-75
2022/03/02 09:00:01;;;;;;;26.10;16.00;;;;;;;14.77;29.31;101545.65;84712;1329;22608;-75
2022/03/02 09:02:13;;;;;;;26.90;17.50;;;;;;;14.81;29.44;101549.16;84615;1333;22582;-74
2022/03/02 09:04:26;;;;;;;23.40;17.00;;;;;;;14.98;28.99;101545.56;84697;1332;22607;-80
2022/03/02 09:06:38;;;;;;;22.60;15.80;;;;;;;15.02;29.15;101540.17;84629;1329;22585;-75
2022/03/02 09:08:50;;;;;;;29.90;17.20;;;;;;;14.99;28.64;101536.20;84676;1329;22615;-75
2022/03/02 09:10:59;;;;;;;27.80;16.40;;;;;;;15.02;29.23;101534.53;84575;1334;22603;-80
2022/03/02 09:13:11;;;;;;;25.60;17.50;;;;;;;15.14;28.69;101531.41;84664;1330;22925;-79
2022/03/02 09:15:20;;;;;;;24.60;16.90;;;;;;;15.16;28.91;101533.46;84608;1330;22666;-80
2022/03/02 09:17:31;;;;;;;23.50;15.40;;;;;;;15.17;29.10;101527.08;84671;1329;22546;-80
2022/03/02 09:19:43;;;;;;;25.50;17.10;;;;;;;15.21;29.02;101529.03;84655;1333;22651;-80
2022/03/02 09:21:55;;;;;;;25.00;18.30;;;;;;;15.32;28.47;101528.27;84628;1333;22593;-80
2022/03/02 09:24:12;;;;;;;30.50;19.40;;;;;;;15.53;28.70;101526.89;84646;1329;22589;-79
2022/03/02 09:26:24;;;;;;;27.00;18.20;;;;;;;15.64;28.17;101525.23;84690;1324;22604;-75
2022/03/02 09:28:39;;;;;;;29.60;16.90;;;;;;;15.66;28.48;101522.70;84614;1329;22637;-75
2022/03/02 09:30:48;;;;;;;24.70;16.10;;;;;;;15.73;28.24;101519.27;84710;1332;22607;-84
2022/03/02 09:33:01;;;;;;;22.50;14.30;;;;;;;15.79;28.35;101520.23;84701;1329;22600;-82
2022/03/02 09:35:16;;;;;;;18.80;13.70;;;;;;;15.96;27.72;101517.74;84685;1331;22879;-80
2022/03/02 09:37:29;;;;;;;24.80;15.70;;;;;;;16.02;27.90;101514.34;84768;1330;23170;-81
2022/03/02 09:39:41;;;;;;;23.30;16.10;;;;;;;16.03;27.46;101508.52;84671;1327;22593;-81
2022/03/02 09:41:59;;;;;;;24.60;17.10;;;;;;;15.97;27.58;101503.84;84636;1332;26500;-81
2022/03/02 09:44:11;;;;;;;25.20;15.10;;;;;;;15.86;27.68;101500.93;84669;1332;22845;-79
2022/03/02 09:46:25;;;;;;;29.20;16.40;;;;;;;15.81;27.74;101496.58;84699;1332;22699;-80
2022/03/02 09:48:41;;;;;;;27.80;17.60;;;;;;;15.89;27.70;101495.70;84678;1329;24378;-80
2022/03/02 09:50:51;;;;;;;26.30;17.40;;;;;;;15.90;27.46;101489.34;84648;1333;22586;-76
2022/03/02 09:53:02;;;;;;;24.50;15.50;;;;;;;15.87;27.45;101494.05;84712;1327;23965;-76